sensor_id;sensor_type;location;lat;lon;timestamp;pressure;altitude;pressure_sealevel;temperature;humidity
21728;BME280;11026;50.560;17.852;2022-12-11T00:01:12;98605.72;;;0.24;100.00
21728;BME280;11026;50.560;17.852;2022-12-11T00:03:40;98607.41;;;0.26;100.00
21728;BME280;11026;50.560;17.852;2022-12-11T00:06:09;98603.97;;;0.25;100.00
21728;BME280;11026;50.560;17.852;2022-12-11T00:08:39;98606.56;;;0.23;100.00
21728;BME280;11026;50.560;17.852;2022-12-11T00:11:14;98603.13;;;0.23;100.00
21728;BME280;11026;50.560;17.852;2022-12-11T00:13:44;98600.59;;;0.20;100.00
21728;BME280;11026;50.560;17.852;2022-12-11T00:16:11;98596.38;;;0.11;100.00
21728;BME280;11026;50.560;17.852;2022-12-11T00:18:45;98590.19;;;0.20;100.00
21728;BME280;11026;50.560;17.852;2022-12-11T00:21:13;98593.66;;;0.20;100.00
21728;BME280;11026;50.560;17.852;2022-12-11T00:23:41;98579.84;;;0.17;100.00
21728;BME280;11026;50.560;17.852;2022-12-11T00:26:14;98580.69;;;0.17;100.00
21728;BME280;11026;50.560;17.852;2022-12-11T00:28:43;98585.00;;;0.18;100.00
21728;BME280;11026;50.560;17.852;2022-12-11T00:31:14;98575.44;;;0.20;100.00
21728;BME280;11026;50.560;17.852;2022-12-11T00:33:44;98584.09;;;0.19;100.00
21728;BME280;11026;50.560;17.852;2022-12-11T00:36:14;98575.44;;;0.19;100.00
21728;BME280;11026;50.560;17.852;2022-12-11T00:38:46;98577.16;;;0.21;100.00
21728;BME280;11026;50.560;17.852;2022-12-11T00:41:16;98586.69;;;0.19;100.00
21728;BME280;11026;50.560;17.852;2022-12-11T00:43:44;98582.47;;;0.14;100.00
21728;BME280;11026;50.560;17.852;2022-12-11T00:46:12;98582.41;;;0.18;100.00
21728;BME280;11026;50.560;17.852;2022-12-11T00:48:39;98573.81;;;0.13;100.00
21728;BME280;11026;50.560;17.852;2022-12-11T00:51:07;98582.34;;;0.21;100.00
21728;BME280;11026;50.560;17.852;2022-12-11T00:53:35;98572.78;;;0.22;100.00
21728;BME280;11026;50.560;17.852;2022-12-11T00:56:11;98572.13;;;0.12;100.00
21728;BME280;11026;50.560;17.852;2022-12-11T00:58:46;98569.47;;;0.14;100.00
21728;BME280;11026;50.560;17.852;2022-12-11T01:01:18;98581.63;;;0.12;100.00
21728;BME280;11026;50.560;17.852;2022-12-11T01:03:46;98577.31;;;0.12;100.00
21728;BME280;11026;50.560;17.852;2022-12-11T01:06:24;98566.06;;;0.10;100.00
21728;BME280;11026;50.560;17.852;2022-12-11T01:08:53;98569.59;;;0.06;100.00
21728;BME280;11026;50.560;17.852;2022-12-11T01:11:46;98577.41;;;0.06;100.00
21728;BME280;11026;50.560;17.852;2022-12-11T01:14:14;98585.25;;;0.05;100.00
21728;BME280;11026;50.560;17.852;2022-12-11T01:16:43;98587.81;;;0.06;100.00
21728;BME280;11026;50.560;17.852;2022-12-11T01:19:11;98586.06;;;0.08;100.00
21728;BME280;11026;50.560;17.852;2022-12-11T01:21:38;98576.63;;;0.01;100.00
21728;BME280;11026;50.560;17.852;2022-12-11T01:24:06;98580.91;;;0.05;100.00
21728;BME280;11026;50.560;17.852;2022-12-11T01:26:33;98572.22;;;0.06;100.00
21728;BME280;11026;50.560;17.852;2022-12-11T01:29:02;98579.19;;;0.04;100.00
21728;BME280;11026;50.560;17.852;2022-12-11T01:31:29;98575.69;;;0.05;100.00
21728;BME280;11026;50.560;17.852;2022-12-11T01:33:57;98572.25;;;0.03;100.00
21728;BME280;11026;50.560;17.852;2022-12-11T01:36:24;98562.69;;;0.04;100.00
21728;BME280;11026;50.560;17.852;2022-12-11T01:38:53;98566.19;;;0.04;100.00
21728;BME280;11026;50.560;17.852;2022-12-11T01:41:20;98564.50;;;0.02;100.00
21728;BME280;11026;50.560;17.852;2022-12-11T01:44:01;98565.31;;;0.04;100.00
21728;BME280;11026;50.560;17.852;2022-12-11T01:46:31;98554.94;;;0.02;100.00
21728;BME280;11026;50.560;17.852;2022-12-11T01:49:01;98557.59;;;0.01;100.00
21728;BME280;11026;50.560;17.852;2022-12-11T01:51:32;98554.13;;;-0.02;100.00
21728;BME280;11026;50.560;17.852;2022-12-11T01:54:06;98554.13;;;-0.02;100.00
21728;BME280;11026;50.560;17.852;2022-12-11T01:56:36;98551.56;;;-0.03;100.00
21728;BME280;11026;50.560;17.852;2022-12-11T01:59:07;98552.44;;;-0.03;100.00
21728;BME280;11026;50.560;17.852;2022-12-11T02:01:54;98549.78;;;-0.01;100.00
21728;BME280;11026;50.560;17.852;2022-12-11T02:04:23;98548.13;;;-0.04;100.00
21728;BME280;11026;50.560;17.852;2022-12-11T02:06:51;98547.19;;;0.01;100.00
21728;BME280;11026;50.560;17.852;2022-12-11T02:09:40;98537.63;;;0.01;100.00
21728;BME280;11026;50.560;17.852;2022-12-11T02:15:16;98541.19;;;-0.03;100.00
21728;BME280;11026;50.560;17.852;2022-12-11T02:18:30;98542.97;;;-0.07;100.00
21728;BME280;11026;50.560;17.852;2022-12-11T02:21:18;98544.78;;;-0.12;100.00
21728;BME280;11026;50.560;17.852;2022-12-11T02:26:49;98538.69;;;-0.11;100.00
21728;BME280;11026;50.560;17.852;2022-12-11T02:29:48;98534.41;;;-0.13;100.00
21728;BME280;11026;50.560;17.852;2022-12-11T02:32:34;98536.03;;;-0.06;100.00
21728;BME280;11026;50.560;17.852;2022-12-11T02:35:31;98529.16;;;-0.10;100.00
21728;BME280;11026;50.560;17.852;2022-12-11T02:38:27;98528.38;;;-0.15;100.00
21728;BME280;11026;50.560;17.852;2022-12-11T02:40:57;98529.25;;;-0.16;100.00
21728;BME280;11026;50.560;17.852;2022-12-11T02:43:27;98530.91;;;-0.12;100.00
21728;BME280;11026;50.560;17.852;2022-12-11T02:45:58;98543.19;;;-0.19;100.00
21728;BME280;11026;50.560;17.852;2022-12-11T02:48:26;98529.25;;;-0.16;100.00
21728;BME280;11026;50.560;17.852;2022-12-11T02:50:56;98534.53;;;-0.19;100.00
21728;BME280;11026;50.560;17.852;2022-12-11T02:53:27;98543.25;;;-0.23;100.00
21728;BME280;11026;50.560;17.852;2022-12-11T02:56:28;98544.03;;;-0.20;100.00
21728;BME280;11026;50.560;17.852;2022-12-11T02:59:02;98541.44;;;-0.18;100.00
21728;BME280;11026;50.560;17.852;2022-12-11T03:01:32;98551.88;;;-0.21;100.00
21728;BME280;11026;50.560;17.852;2022-12-11T03:04:00;98546.63;;;-0.18;100.00
21728;BME280;11026;50.560;17.852;2022-12-11T03:06:35;98544.88;;;-0.18;100.00
21728;BME280;11026;50.560;17.852;2022-12-11T03:09:04;98550.94;;;-0.16;100.00
21728;BME280;11026;50.560;17.852;2022-12-11T03:11:32;98546.78;;;-0.28;100.00
21728;BME280;11026;50.560;17.852;2022-12-11T03:14:00;98551.91;;;-0.25;100.00
21728;BME280;11026;50.560;17.852;2022-12-11T03:19:42;98534.66;;;-0.29;100.00
21728;BME280;11026;50.560;17.852;2022-12-11T03:25:05;98535.47;;;-0.23;100.00
21728;BME280;11026;50.560;17.852;2022-12-11T03:27:45;98546.66;;;-0.21;100.00
21728;BME280;11026;50.560;17.852;2022-12-11T03:30:16;98538.94;;;-0.26;100.00
21728;BME280;11026;50.560;17.852;2022-12-11T03:32:53;98544.13;;;-0.25;100.00
21728;BME280;11026;50.560;17.852;2022-12-11T03:35:32;98535.50;;;-0.27;100.00
21728;BME280;11026;50.560;17.852;2022-12-11T03:38:05;98536.31;;;-0.25;100.00
21728;BME280;11026;50.560;17.852;2022-12-11T03:40:35;98544.13;;;-0.25;100.00
21728;BME280;11026;50.560;17.852;2022-12-11T03:43:07;98539.84;;;-0.29;100.00
21728;BME280;11026;50.560;17.852;2022-12-11T03:45:38;98537.28;;;-0.30;100.00
21728;BME280;11026;50.560;17.852;2022-12-11T03:48:08;98548.56;;;-0.33;100.00
21728;BME280;11026;50.560;17.852;2022-12-11T03:50:37;98541.72;;;-0.35;100.00
21728;BME280;11026;50.560;17.852;2022-12-11T03:53:07;98540.84;;;-0.37;100.00
21728;BME280;11026;50.560;17.852;2022-12-11T03:55:36;98542.56;;;-0.35;100.00
21728;BME280;11026;50.560;17.852;2022-12-11T03:58:05;98542.56;;;-0.36;100.00
21728;BME280;11026;50.560;17.852;2022-12-11T04:00:33;98544.34;;;-0.40;100.00
21728;BME280;11026;50.560;17.852;2022-12-11T04:03:01;98536.50;;;-0.35;100.00
21728;BME280;11026;50.560;17.852;2022-12-11T04:05:46;98536.53;;;-0.37;100.00
21728;BME280;11026;50.560;17.852;2022-12-11T04:08:16;98532.16;;;-0.36;100.00
21728;BME280;11026;50.560;17.852;2022-12-11T04:10:43;98533.91;;;-0.35;100.00
21728;BME280;11026;50.560;17.852;2022-12-11T04:13:10;98534.84;;;-0.39;100.00
21728;BME280;11026;50.560;17.852;2022-12-11T04:15:38;98534.84;;;-0.41;100.00
21728;BME280;11026;50.560;17.852;2022-12-11T04:18:06;98538.34;;;-0.42;100.00
21728;BME280;11026;50.560;17.852;2022-12-11T04:20:53;98542.69;;;-0.42;100.00
21728;BME280;11026;50.560;17.852;2022-12-11T04:23:38;98539.22;;;-0.44;100.00
21728;BME280;11026;50.560;17.852;2022-12-11T04:26:25;98529.78;;;-0.47;100.00
21728;BME280;11026;50.560;17.852;2022-12-11T04:28:52;98533.19;;;-0.45;100.00
21728;BME280;11026;50.560;17.852;2022-12-11T04:31:21;98533.16;;;-0.42;100.00
21728;BME280;11026;50.560;17.852;2022-12-11T04:33:49;98519.25;;;-0.41;100.00
21728;BME280;11026;50.560;17.852;2022-12-11T04:36:17;98524.56;;;-0.47;100.00
21728;BME280;11026;50.560;17.852;2022-12-11T04:38:44;98517.59;;;-0.45;100.00
21728;BME280;11026;50.560;17.852;2022-12-11T04:41:13;98513.38;;;-0.52;100.00
21728;BME280;11026;50.560;17.852;2022-12-11T04:43:42;98514.22;;;-0.50;100.00
21728;BME280;11026;50.560;17.852;2022-12-11T04:46:19;98510.72;;;-0.49;100.00
21728;BME280;11026;50.560;17.852;2022-12-11T04:48:48;98516.81;;;-0.52;100.00
21728;BME280;11026;50.560;17.852;2022-12-11T04:51:22;98505.56;;;-0.52;100.00
21728;BME280;11026;50.560;17.852;2022-12-11T04:53:52;98503.88;;;-0.53;100.00
21728;BME280;11026;50.560;17.852;2022-12-11T04:56:21;98527.22;;;-0.50;100.00
21728;BME280;11026;50.560;17.852;2022-12-11T04:58:49;98511.63;;;-0.50;100.00
21728;BME280;11026;50.560;17.852;2022-12-11T05:01:19;98508.13;;;-0.49;100.00
21728;BME280;11026;50.560;17.852;2022-12-11T05:03:47;98515.13;;;-0.53;100.00
21728;BME280;11026;50.560;17.852;2022-12-11T05:06:15;98501.22;;;-0.52;100.00
21728;BME280;11026;50.560;17.852;2022-12-11T05:08:43;98503.88;;;-0.53;100.00
21728;BME280;11026;50.560;17.852;2022-12-11T05:11:12;98499.56;;;-0.56;100.00
21728;BME280;11026;50.560;17.852;2022-12-11T05:13:43;98510.88;;;-0.58;100.00
21728;BME280;11026;50.560;17.852;2022-12-11T05:16:14;98508.25;;;-0.57;100.00
21728;BME280;11026;50.560;17.852;2022-12-11T05:18:43;98505.63;;;-0.54;100.00
21728;BME280;11026;50.560;17.852;2022-12-11T05:21:12;98503.00;;;-0.54;100.00
21728;BME280;11026;50.560;17.852;2022-12-11T05:23:42;98517.81;;;-0.60;100.00
21728;BME280;11026;50.560;17.852;2022-12-11T05:26:17;98510.09;;;-0.63;100.00
21728;BME280;11026;50.560;17.852;2022-12-11T05:28:46;98517.91;;;-0.63;100.00
21728;BME280;11026;50.560;17.852;2022-12-11T05:31:22;98524.81;;;-0.62;100.00
21728;BME280;11026;50.560;17.852;2022-12-11T05:33:56;98519.59;;;-0.62;100.00
21728;BME280;11026;50.560;17.852;2022-12-11T05:36:27;98510.97;;;-0.64;100.00
21728;BME280;11026;50.560;17.852;2022-12-11T05:38:56;98512.72;;;-0.63;100.00
21728;BME280;11026;50.560;17.852;2022-12-11T05:41:29;98512.00;;;-0.76;100.00
21728;BME280;11026;50.560;17.852;2022-12-11T05:43:56;98514.63;;;-0.78;100.00
21728;BME280;11026;50.560;17.852;2022-12-11T05:46:27;98512.06;;;-0.79;100.00
21728;BME280;11026;50.560;17.852;2022-12-11T05:48:59;98516.44;;;-0.83;100.00
21728;BME280;11026;50.560;17.852;2022-12-11T05:51:28;98509.44;;;-0.78;100.00
21728;BME280;11026;50.560;17.852;2022-12-11T05:53:57;98515.47;;;-0.74;100.00
21728;BME280;11026;50.560;17.852;2022-12-11T05:56:29;98514.53;;;-0.71;100.00
21728;BME280;11026;50.560;17.852;2022-12-11T05:58:57;98514.59;;;-0.75;100.00
21728;BME280;11026;50.560;17.852;2022-12-11T06:01:36;98517.19;;;-0.75;100.00
21728;BME280;11026;50.560;17.852;2022-12-11T06:04:05;98511.19;;;-0.80;100.00
21728;BME280;11026;50.560;17.852;2022-12-11T06:06:34;98521.47;;;-0.72;100.00
21728;BME280;11026;50.560;17.852;2022-12-11T06:09:03;98520.59;;;-0.71;100.00
21728;BME280;11026;50.560;17.852;2022-12-11T06:11:32;98518.03;;;-0.72;100.00
21728;BME280;11026;50.560;17.852;2022-12-11T06:14:01;98517.13;;;-0.71;100.00
21728;BME280;11026;50.560;17.852;2022-12-11T06:16:30;98529.25;;;-0.70;100.00
21728;BME280;11026;50.560;17.852;2022-12-11T06:18:58;98532.72;;;-0.71;100.00
21728;BME280;11026;50.560;17.852;2022-12-11T06:21:28;98544.88;;;-0.73;100.00
21728;BME280;11026;50.560;17.852;2022-12-11T06:23:57;98537.09;;;-0.73;100.00
21728;BME280;11026;50.560;17.852;2022-12-11T06:26:25;98542.25;;;-0.70;100.00
21728;BME280;11026;50.560;17.852;2022-12-11T06:28:53;98555.25;;;-0.73;100.00
21728;BME280;11026;50.560;17.852;2022-12-11T06:31:21;98546.63;;;-0.74;100.00
21728;BME280;11026;50.560;17.852;2022-12-11T06:33:53;98550.91;;;-0.73;100.00
21728;BME280;11026;50.560;17.852;2022-12-11T06:36:27;98562.28;;;-0.80;100.00
21728;BME280;11026;50.560;17.852;2022-12-11T06:38:55;98559.66;;;-0.79;100.00
21728;BME280;11026;50.560;17.852;2022-12-11T06:41:22;98561.41;;;-0.81;100.00
21728;BME280;11026;50.560;17.852;2022-12-11T06:43:50;98558.81;;;-0.81;100.00
21728;BME280;11026;50.560;17.852;2022-12-11T06:46:19;98563.97;;;-0.78;100.00
21728;BME280;11026;50.560;17.852;2022-12-11T06:48:48;98560.53;;;-0.80;100.00
21728;BME280;11026;50.560;17.852;2022-12-11T06:51:20;98558.91;;;-0.88;100.00
21728;BME280;11026;50.560;17.852;2022-12-11T06:53:52;98554.53;;;-0.85;100.00
21728;BME280;11026;50.560;17.852;2022-12-11T06:56:22;98558.03;;;-0.86;100.00
21728;BME280;11026;50.560;17.852;2022-12-11T06:58:50;98565.81;;;-0.87;100.00
21728;BME280;11026;50.560;17.852;2022-12-11T07:01:23;98573.63;;;-0.86;100.00
21728;BME280;11026;50.560;17.852;2022-12-11T07:03:55;98555.44;;;-0.86;100.00
21728;BME280;11026;50.560;17.852;2022-12-11T07:06:24;98558.91;;;-0.87;100.00
21728;BME280;11026;50.560;17.852;2022-12-11T07:08:52;98555.44;;;-0.87;100.00
21728;BME280;11026;50.560;17.852;2022-12-11T07:11:20;98551.91;;;-0.83;100.00
21728;BME280;11026;50.560;17.852;2022-12-11T07:13:47;98562.38;;;-0.88;100.00
21728;BME280;11026;50.560;17.852;2022-12-11T07:16:17;98546.88;;;-0.91;100.00
21728;BME280;11026;50.560;17.852;2022-12-11T07:18:49;98559.84;;;-0.91;100.00
21728;BME280;11026;50.560;17.852;2022-12-11T07:21:19;98566.84;;;-0.99;100.00
21728;BME280;11026;50.560;17.852;2022-12-11T07:23:47;98565.22;;;-1.06;100.00
21728;BME280;11026;50.560;17.852;2022-12-11T07:26:16;98565.31;;;-1.14;100.00
21728;BME280;11026;50.560;17.852;2022-12-11T07:28:46;98571.38;;;-1.13;100.00
21728;BME280;11026;50.560;17.852;2022-12-11T07:31:19;98571.31;;;-1.09;100.00
21728;BME280;11026;50.560;17.852;2022-12-11T07:33:56;98573.00;;;-1.06;100.00
21728;BME280;11026;50.560;17.852;2022-12-11T07:36:24;98573.00;;;-1.06;100.00
21728;BME280;11026;50.560;17.852;2022-12-11T07:38:52;98580.81;;;-1.06;100.00
21728;BME280;11026;50.560;17.852;2022-12-11T07:41:28;98564.34;;;-1.05;100.00
21728;BME280;11026;50.560;17.852;2022-12-11T07:43:58;98571.34;;;-1.10;100.00
21728;BME280;11026;50.560;17.852;2022-12-11T07:46:29;98569.56;;;-1.07;100.00
21728;BME280;11026;50.560;17.852;2022-12-11T07:48:57;98572.13;;;-1.05;100.00
21728;BME280;11026;50.560;17.852;2022-12-11T07:51:29;98579.03;;;-1.04;100.00
21728;BME280;11026;50.560;17.852;2022-12-11T07:54:02;98582.47;;;-1.04;100.00
21728;BME280;11026;50.560;17.852;2022-12-11T07:56:31;98575.53;;;-1.03;100.00
21728;BME280;11026;50.560;17.852;2022-12-11T07:59:00;98581.69;;;-1.09;100.00
21728;BME280;11026;50.560;17.852;2022-12-11T08:01:30;98590.38;;;-1.10;100.00
21728;BME280;11026;50.560;17.852;2022-12-11T08:03:58;98586.06;;;-1.12;100.00
21728;BME280;11026;50.560;17.852;2022-12-11T08:06:31;98582.59;;;-1.13;100.00
21728;BME280;11026;50.560;17.852;2022-12-11T08:09:07;98573.94;;;-1.10;100.00
21728;BME280;11026;50.560;17.852;2022-12-11T08:11:36;98579.97;;;-1.11;100.00
21728;BME280;11026;50.560;17.852;2022-12-11T08:14:04;98574.72;;;-1.05;100.00
21728;BME280;11026;50.560;17.852;2022-12-11T08:16:33;98579.94;;;-1.08;100.00
21728;BME280;11026;50.560;17.852;2022-12-11T08:19:02;98578.19;;;-1.05;100.00
21728;BME280;11026;50.560;17.852;2022-12-11T08:21:29;98577.31;;;-1.05;100.00
21728;BME280;11026;50.560;17.852;2022-12-11T08:23:57;98573.84;;;-1.04;100.00
21728;BME280;11026;50.560;17.852;2022-12-11T08:26:28;98566.91;;;-1.02;100.00
21728;BME280;11026;50.560;17.852;2022-12-11T08:28:59;98571.28;;;-1.07;100.00
21728;BME280;11026;50.560;17.852;2022-12-11T08:31:26;98567.84;;;-1.09;100.00
21728;BME280;11026;50.560;17.852;2022-12-11T08:33:55;98568.69;;;-1.07;100.00
21728;BME280;11026;50.560;17.852;2022-12-11T08:36:23;98579.16;;;-1.13;100.00
21728;BME280;11026;50.560;17.852;2022-12-11T08:38:54;98579.19;;;-1.16;100.00
21728;BME280;11026;50.560;17.852;2022-12-11T08:41:23;98577.44;;;-1.14;100.00
21728;BME280;11026;50.560;17.852;2022-12-11T08:43:51;98578.38;;;-1.21;100.00
21728;BME280;11026;50.560;17.852;2022-12-11T08:46:26;98574.13;;;-1.26;100.00
21728;BME280;11026;50.560;17.852;2022-12-11T08:48:55;98579.28;;;-1.22;100.00
21728;BME280;11026;50.560;17.852;2022-12-11T08:51:25;98578.38;;;-1.21;100.00
21728;BME280;11026;50.560;17.852;2022-12-11T08:53:58;98581.81;;;-1.19;100.00
21728;BME280;11026;50.560;17.852;2022-12-11T08:56:27;98579.19;;;-1.16;100.00
21728;BME280;11026;50.560;17.852;2022-12-11T08:58:58;98574.88;;;-1.19;100.00
21728;BME280;11026;50.560;17.852;2022-12-11T09:01:27;98582.66;;;-1.17;100.00
21728;BME280;11026;50.560;17.852;2022-12-11T09:03:55;98575.78;;;-1.18;100.00
21728;BME280;11026;50.560;17.852;2022-12-11T09:06:26;98581.84;;;-1.21;100.00
21728;BME280;11026;50.560;17.852;2022-12-11T09:09:00;98565.41;;;-1.21;100.00
21728;BME280;11026;50.560;17.852;2022-12-11T09:11:34;98574.94;;;-1.22;100.00
21728;BME280;11026;50.560;17.852;2022-12-11T09:14:03;98576.66;;;-1.21;100.00
21728;BME280;11026;50.560;17.852;2022-12-11T09:16:36;98567.97;;;-1.20;100.00
21728;BME280;11026;50.560;17.852;2022-12-11T09:19:08;98563.72;;;-1.22;100.00
21728;BME280;11026;50.560;17.852;2022-12-11T09:21:37;98560.28;;;-1.26;100.00
21728;BME280;11026;50.560;17.852;2022-12-11T09:24:08;98562.78;;;-1.18;100.00
21728;BME280;11026;50.560;17.852;2022-12-11T09:26:37;98556.75;;;-1.20;100.00
21728;BME280;11026;50.560;17.852;2022-12-11T09:29:06;98548.03;;;-1.16;100.00
21728;BME280;11026;50.560;17.852;2022-12-11T09:31:35;98553.22;;;-1.16;100.00
21728;BME280;11026;50.560;17.852;2022-12-11T09:34:04;98552.31;;;-1.12;100.00
21728;BME280;11026;50.560;17.852;2022-12-11T09:36:37;98547.91;;;-1.07;100.00
21728;BME280;11026;50.560;17.852;2022-12-11T09:39:07;98544.53;;;-1.12;100.00
21728;BME280;11026;50.560;17.852;2022-12-11T09:41:47;98549.81;;;-1.18;100.00
21728;BME280;11026;50.560;17.852;2022-12-11T09:47:26;98541.16;;;-1.17;100.00
21728;BME280;11026;50.560;17.852;2022-12-11T09:50:26;98540.28;;;-1.19;100.00
21728;BME280;11026;50.560;17.852;2022-12-11T09:56:18;98535.03;;;-1.13;100.00
21728;BME280;11026;50.560;17.852;2022-12-11T09:59:23;98528.84;;;-1.05;100.00
21728;BME280;11026;50.560;17.852;2022-12-11T10:02:02;98531.38;;;-1.00;100.00
21728;BME280;11026;50.560;17.852;2022-12-11T10:05:02;98528.72;;;-0.95;100.00
21728;BME280;11026;50.560;17.852;2022-12-11T10:07:40;98516.63;;;-0.95;100.00
21728;BME280;11026;50.560;17.852;2022-12-11T10:10:37;98522.72;;;-0.99;100.00
21728;BME280;11026;50.560;17.852;2022-12-11T10:18:52;98525.34;;;-1.01;100.00
21728;BME280;11026;50.560;17.852;2022-12-11T10:21:21;98531.38;;;-0.98;100.00
21728;BME280;11026;50.560;17.852;2022-12-11T10:23:53;98528.75;;;-0.97;100.00
21728;BME280;11026;50.560;17.852;2022-12-11T10:26:23;98529.63;;;-0.96;100.00
21728;BME280;11026;50.560;17.852;2022-12-11T10:28:55;98530.44;;;-0.93;100.00
21728;BME280;11026;50.560;17.852;2022-12-11T10:34:35;98527.88;;;-0.94;100.00
21728;BME280;11026;50.560;17.852;2022-12-11T10:37:03;98522.78;;;-1.04;100.00
21728;BME280;11026;50.560;17.852;2022-12-11T10:39:30;98522.03;;;-1.10;100.00
21728;BME280;11026;50.560;17.852;2022-12-11T10:41:57;98518.56;;;-1.12;100.00
21728;BME280;11026;50.560;17.852;2022-12-11T10:44:28;98514.31;;;-1.16;100.00
21728;BME280;11026;50.560;17.852;2022-12-11T10:47:10;98519.47;;;-1.13;100.00
21728;BME280;11026;50.560;17.852;2022-12-11T10:49:42;98518.59;;;-1.15;100.00
21728;BME280;11026;50.560;17.852;2022-12-11T10:52:18;98517.69;;;-1.11;100.00
21728;BME280;11026;50.560;17.852;2022-12-11T10:54:58;98516.88;;;-1.13;100.00
21728;BME280;11026;50.560;17.852;2022-12-11T10:57:32;98508.38;;;-1.25;100.00
21728;BME280;11026;50.560;17.852;2022-12-11T11:00:03;98503.38;;;-1.40;100.00
21728;BME280;11026;50.560;17.852;2022-12-11T11:02:35;98505.72;;;-1.23;100.00
21728;BME280;11026;50.560;17.852;2022-12-11T11:05:15;98493.69;;;-1.27;100.00
21728;BME280;11026;50.560;17.852;2022-12-11T11:07:43;98497.06;;;-1.20;100.00
21728;BME280;11026;50.560;17.852;2022-12-11T11:12:42;98486.69;;;-1.20;100.00
21728;BME280;11026;50.560;17.852;2022-12-11T11:15:18;98492.66;;;-1.14;100.00
21728;BME280;11026;50.560;17.852;2022-12-11T11:17:53;98490.94;;;-1.16;100.00
21728;BME280;11026;50.560;17.852;2022-12-11T11:20:28;98486.66;;;-1.17;100.00
21728;BME280;11026;50.560;17.852;2022-12-11T11:22:58;98477.25;;;-1.26;100.00
21728;BME280;11026;50.560;17.852;2022-12-11T11:25:28;98476.38;;;-1.25;100.00
21728;BME280;11026;50.560;17.852;2022-12-11T11:27:59;98472.03;;;-1.25;100.00
21728;BME280;11026;50.560;17.852;2022-12-11T11:30:35;98479.03;;;-1.30;100.00
21728;BME280;11026;50.560;17.852;2022-12-11T11:33:15;98469.56;;;-1.34;100.00
21728;BME280;11026;50.560;17.852;2022-12-11T11:35:56;98472.19;;;-1.37;100.00
21728;BME280;11026;50.560;17.852;2022-12-11T11:38:37;98465.31;;;-1.38;100.00
21728;BME280;11026;50.560;17.852;2022-12-11T11:41:16;98472.25;;;-1.41;100.00
21728;BME280;11026;50.560;17.852;2022-12-11T11:43:50;98464.44;;;-1.38;100.00
21728;BME280;11026;50.560;17.852;2022-12-11T11:46:37;98470.69;;;-1.53;100.00
21728;BME280;11026;50.560;17.852;2022-12-11T11:49:19;98473.28;;;-1.53;100.00
21728;BME280;11026;50.560;17.852;2022-12-11T11:52:11;98460.28;;;-1.50;100.00
21728;BME280;11026;50.560;17.852;2022-12-11T12:00:29;98463.06;;;-1.65;100.00
21728;BME280;11026;50.560;17.852;2022-12-11T12:03:02;98465.56;;;-1.59;100.00
21728;BME280;11026;50.560;17.852;2022-12-11T12:08:57;98452.66;;;-1.64;100.00
21728;BME280;11026;50.560;17.852;2022-12-11T12:11:50;98467.47;;;-1.74;100.00
21728;BME280;11026;50.560;17.852;2022-12-11T12:17:33;98459.34;;;-1.46;100.00
21728;BME280;11026;50.560;17.852;2022-12-11T12:24:08;98444.63;;;-1.42;100.00
21728;BME280;11026;50.560;17.852;2022-12-11T12:26:20;98442.25;;;-1.61;100.00
21728;BME280;11026;50.560;17.852;2022-12-11T12:29:44;98445.63;;;-1.56;100.00
21728;BME280;11026;50.560;17.852;2022-12-11T12:34:32;98442.13;;;-1.52;100.00
21728;BME280;11026;50.560;17.852;2022-12-11T12:45:33;98437.44;;;-1.90;100.00
21728;BME280;11026;50.560;17.852;2022-12-11T12:48:03;98445.41;;;-2.11;100.00
21728;BME280;11026;50.560;17.852;2022-12-11T12:50:51;98448.81;;;-2.05;100.00
21728;BME280;11026;50.560;17.852;2022-12-11T12:53:22;98450.56;;;-2.08;100.00
21728;BME280;11026;50.560;17.852;2022-12-11T12:55:52;98451.41;;;-2.05;100.00
21728;BME280;11026;50.560;17.852;2022-12-11T13:01:21;98470.53;;;-2.18;100.00
21728;BME280;11026;50.560;17.852;2022-12-11T13:03:55;98465.34;;;-2.16;100.00
21728;BME280;11026;50.560;17.852;2022-12-11T13:06:52;98473.13;;;-2.19;100.00
21728;BME280;11026;50.560;17.852;2022-12-11T13:09:22;98463.78;;;-2.34;100.00
21728;BME280;11026;50.560;17.852;2022-12-11T13:11:52;98452.44;;;-2.23;100.00
21728;BME280;11026;50.560;17.852;2022-12-11T13:14:28;98455.97;;;-2.28;100.00
21728;BME280;11026;50.560;17.852;2022-12-11T13:19:49;98456.78;;;-2.26;100.00
21728;BME280;11026;50.560;17.852;2022-12-11T13:22:23;98468.94;;;-2.34;100.00
21728;BME280;11026;50.560;17.852;2022-12-11T13:30:22;98472.34;;;-2.26;100.00
21728;BME280;11026;50.560;17.852;2022-12-11T13:33:06;98476.63;;;-2.24;100.00
21728;BME280;11026;50.560;17.852;2022-12-11T13:35:34;98476.69;;;-2.30;100.00
21728;BME280;11026;50.560;17.852;2022-12-11T13:38:11;98474.06;;;-2.27;100.00
21728;BME280;11026;50.560;17.852;2022-12-11T13:40:44;98476.78;;;-2.39;100.00
21728;BME280;11026;50.560;17.852;2022-12-11T13:43:18;98479.38;;;-2.42;100.00
21728;BME280;11026;50.560;17.852;2022-12-11T13:45:49;98478.47;;;-2.38;100.00
21728;BME280;11026;50.560;17.852;2022-12-11T13:48:27;98473.25;;;-2.32;100.00
21728;BME280;11026;50.560;17.852;2022-12-11T13:50:58;98470.75;;;-2.39;100.00
21728;BME280;11026;50.560;17.852;2022-12-11T13:53:26;98461.22;;;-2.39;100.00
21728;BME280;11026;50.560;17.852;2022-12-11T13:55:59;98467.28;;;-2.38;100.00
21728;BME280;11026;50.560;17.852;2022-12-11T13:58:28;98481.13;;;-2.42;100.00
21728;BME280;11026;50.560;17.852;2022-12-11T14:01:13;98472.50;;;-2.43;100.00
21728;BME280;11026;50.560;17.852;2022-12-11T14:06:28;98469.94;;;-2.46;100.00
21728;BME280;11026;50.560;17.852;2022-12-11T14:08:58;98478.56;;;-2.44;100.00
21728;BME280;11026;50.560;17.852;2022-12-11T14:11:40;98484.63;;;-2.45;100.00
21728;BME280;11026;50.560;17.852;2022-12-11T14:16:47;98487.22;;;-2.48;100.00
21728;BME280;11026;50.560;17.852;2022-12-11T14:19:19;98493.22;;;-2.43;100.00
21728;BME280;11026;50.560;17.852;2022-12-11T14:22:02;98495.78;;;-2.40;100.00